Terminal Aerodrome Forecast
Issued by NWS

Home | Current Version | Previous Version | Text Only | Print | Product List | Glossary On
Versions: 1 2 3 4 5 6 7 8 9 10 11 12 13 14 15 16 17
000
FTUS43 KOAX 061127
TAFSNY
TAF
KSNY 061127Z 0612/0712 28008KT P6SM SCT150
     FM061600 30015G25KT P6SM FEW250
     FM070200 28010KT P6SM FEW250=

USA.gov is the U.S. government's official web portal to all federal, state and local government web resources and services.